sensor_id;sensor_type;location;lat;lon;timestamp;P1;durP1;ratioP1;P2;durP2;ratioP2
79414;SDS011;68864;44.972;19.612;2023-09-12T00:01:35;17.17;;;7.35;;
79414;SDS011;68864;44.972;19.612;2023-09-12T00:04:03;27.67;;;14.05;;
79414;SDS011;68864;44.972;19.612;2023-09-12T00:06:30;23.42;;;9.25;;
79414;SDS011;68864;44.972;19.612;2023-09-12T00:08:57;17.48;;;7.43;;
79414;SDS011;68864;44.972;19.612;2023-09-12T00:11:24;15.43;;;5.95;;
79414;SDS011;68864;44.972;19.612;2023-09-12T00:13:51;23.90;;;6.70;;
79414;SDS011;68864;44.972;19.612;2023-09-12T00:18:46;11.95;;;5.05;;
79414;SDS011;68864;44.972;19.612;2023-09-12T00:21:13;10.25;;;3.08;;
79414;SDS011;68864;44.972;19.612;2023-09-12T00:23:39;10.82;;;3.92;;
79414;SDS011;68864;44.972;19.612;2023-09-12T00:26:06;14.30;;;4.38;;
79414;SDS011;68864;44.972;19.612;2023-09-12T00:28:33;19.15;;;3.78;;
79414;SDS011;68864;44.972;19.612;2023-09-12T00:31:00;24.63;;;5.30;;
79414;SDS011;68864;44.972;19.612;2023-09-12T00:33:27;25.05;;;7.60;;
79414;SDS011;68864;44.972;19.612;2023-09-12T00:35:55;45.13;;;15.73;;
79414;SDS011;68864;44.972;19.612;2023-09-12T00:38:22;38.92;;;15.15;;
79414;SDS011;68864;44.972;19.612;2023-09-12T00:40:48;37.13;;;14.10;;
79414;SDS011;68864;44.972;19.612;2023-09-12T00:43:15;34.88;;;15.25;;
79414;SDS011;68864;44.972;19.612;2023-09-12T00:45:42;34.10;;;15.05;;
79414;SDS011;68864;44.972;19.612;2023-09-12T00:48:08;32.38;;;13.93;;
79414;SDS011;68864;44.972;19.612;2023-09-12T00:50:36;38.50;;;14.07;;
79414;SDS011;68864;44.972;19.612;2023-09-12T00:53:06;33.58;;;12.27;;
79414;SDS011;68864;44.972;19.612;2023-09-12T00:55:34;27.27;;;12.98;;
79414;SDS011;68864;44.972;19.612;2023-09-12T00:58:03;26.83;;;12.90;;
79414;SDS011;68864;44.972;19.612;2023-09-12T01:00:30;26.77;;;11.75;;
79414;SDS011;68864;44.972;19.612;2023-09-12T01:02:57;22.25;;;10.07;;
79414;SDS011;68864;44.972;19.612;2023-09-12T01:05:24;22.05;;;9.85;;
79414;SDS011;68864;44.972;19.612;2023-09-12T01:07:53;23.27;;;8.75;;
79414;SDS011;68864;44.972;19.612;2023-09-12T01:10:21;21.08;;;8.05;;
79414;SDS011;68864;44.972;19.612;2023-09-12T01:12:48;23.60;;;7.25;;
79414;SDS011;68864;44.972;19.612;2023-09-12T01:15:15;13.63;;;5.43;;
79414;SDS011;68864;44.972;19.612;2023-09-12T01:20:10;13.77;;;4.75;;
79414;SDS011;68864;44.972;19.612;2023-09-12T01:22:46;9.13;;;3.65;;
79414;SDS011;68864;44.972;19.612;2023-09-12T01:25:38;12.57;;;3.83;;
79414;SDS011;68864;44.972;19.612;2023-09-12T01:28:28;14.00;;;5.88;;
79414;SDS011;68864;44.972;19.612;2023-09-12T01:30:57;11.07;;;4.75;;
79414;SDS011;68864;44.972;19.612;2023-09-12T01:33:26;14.93;;;6.50;;
79414;SDS011;68864;44.972;19.612;2023-09-12T01:35:53;12.18;;;5.47;;
79414;SDS011;68864;44.972;19.612;2023-09-12T01:40:48;11.90;;;3.83;;
79414;SDS011;68864;44.972;19.612;2023-09-12T01:43:17;10.23;;;3.65;;
79414;SDS011;68864;44.972;19.612;2023-09-12T01:45:47;10.38;;;3.53;;
79414;SDS011;68864;44.972;19.612;2023-09-12T01:48:17;9.63;;;5.97;;
79414;SDS011;68864;44.972;19.612;2023-09-12T01:50:46;11.75;;;4.50;;
79414;SDS011;68864;44.972;19.612;2023-09-12T01:53:14;11.50;;;3.22;;
79414;SDS011;68864;44.972;19.612;2023-09-12T01:55:42;11.40;;;3.38;;
79414;SDS011;68864;44.972;19.612;2023-09-12T01:58:10;8.75;;;6.05;;
79414;SDS011;68864;44.972;19.612;2023-09-12T02:00:37;18.92;;;5.93;;
79414;SDS011;68864;44.972;19.612;2023-09-12T02:03:06;8.95;;;7.07;;
79414;SDS011;68864;44.972;19.612;2023-09-12T02:05:33;8.20;;;3.33;;
79414;SDS011;68864;44.972;19.612;2023-09-12T02:08:00;13.73;;;8.68;;
79414;SDS011;68864;44.972;19.612;2023-09-12T02:10:27;13.52;;;4.97;;
79414;SDS011;68864;44.972;19.612;2023-09-12T02:15:20;17.48;;;5.20;;
79414;SDS011;68864;44.972;19.612;2023-09-12T02:17:47;18.30;;;7.60;;
79414;SDS011;68864;44.972;19.612;2023-09-12T02:20:17;16.05;;;5.78;;
79414;SDS011;68864;44.972;19.612;2023-09-12T02:22:43;19.15;;;6.75;;
79414;SDS011;68864;44.972;19.612;2023-09-12T02:25:11;34.83;;;11.57;;
79414;SDS011;68864;44.972;19.612;2023-09-12T02:27:37;39.22;;;16.23;;
79414;SDS011;68864;44.972;19.612;2023-09-12T02:30:05;41.85;;;18.60;;
79414;SDS011;68864;44.972;19.612;2023-09-12T02:32:32;29.00;;;11.18;;
79414;SDS011;68864;44.972;19.612;2023-09-12T02:34:59;38.35;;;17.48;;
79414;SDS011;68864;44.972;19.612;2023-09-12T02:37:29;29.27;;;10.82;;
79414;SDS011;68864;44.972;19.612;2023-09-12T02:39:56;18.48;;;7.95;;
79414;SDS011;68864;44.972;19.612;2023-09-12T02:42:22;20.40;;;7.32;;
79414;SDS011;68864;44.972;19.612;2023-09-12T02:44:50;16.02;;;7.88;;
79414;SDS011;68864;44.972;19.612;2023-09-12T02:47:18;9.80;;;3.92;;
79414;SDS011;68864;44.972;19.612;2023-09-12T02:49:45;13.73;;;7.07;;
79414;SDS011;68864;44.972;19.612;2023-09-12T02:52:12;21.42;;;7.72;;
79414;SDS011;68864;44.972;19.612;2023-09-12T02:54:40;26.10;;;14.65;;
79414;SDS011;68864;44.972;19.612;2023-09-12T02:57:07;24.77;;;12.18;;
79414;SDS011;68864;44.972;19.612;2023-09-12T03:02:00;27.60;;;9.50;;
79414;SDS011;68864;44.972;19.612;2023-09-12T03:04:27;31.88;;;15.57;;
79414;SDS011;68864;44.972;19.612;2023-09-12T03:06:54;30.58;;;10.85;;
79414;SDS011;68864;44.972;19.612;2023-09-12T03:09:21;24.42;;;11.75;;
79414;SDS011;68864;44.972;19.612;2023-09-12T03:11:50;22.40;;;13.43;;
79414;SDS011;68864;44.972;19.612;2023-09-12T03:14:17;25.27;;;9.98;;
79414;SDS011;68864;44.972;19.612;2023-09-12T03:16:44;23.08;;;9.18;;
79414;SDS011;68864;44.972;19.612;2023-09-12T03:19:11;24.58;;;8.00;;
79414;SDS011;68864;44.972;19.612;2023-09-12T03:24:05;15.23;;;5.57;;
79414;SDS011;68864;44.972;19.612;2023-09-12T03:26:33;13.95;;;5.78;;
79414;SDS011;68864;44.972;19.612;2023-09-12T03:29:01;16.23;;;6.72;;
79414;SDS011;68864;44.972;19.612;2023-09-12T03:31:29;19.88;;;7.50;;
79414;SDS011;68864;44.972;19.612;2023-09-12T03:33:56;23.73;;;7.07;;
79414;SDS011;68864;44.972;19.612;2023-09-12T03:36:23;10.98;;;4.55;;
79414;SDS011;68864;44.972;19.612;2023-09-12T03:38:50;16.05;;;7.78;;
79414;SDS011;68864;44.972;19.612;2023-09-12T03:41:16;12.32;;;4.20;;
79414;SDS011;68864;44.972;19.612;2023-09-12T03:43:43;11.27;;;4.00;;
79414;SDS011;68864;44.972;19.612;2023-09-12T03:46:11;14.25;;;5.57;;
79414;SDS011;68864;44.972;19.612;2023-09-12T03:48:38;13.23;;;4.25;;
79414;SDS011;68864;44.972;19.612;2023-09-12T03:51:05;12.27;;;5.60;;
79414;SDS011;68864;44.972;19.612;2023-09-12T03:53:32;31.60;;;10.90;;
79414;SDS011;68864;44.972;19.612;2023-09-12T03:55:59;22.90;;;9.93;;
79414;SDS011;68864;44.972;19.612;2023-09-12T03:58:26;25.10;;;9.25;;
79414;SDS011;68864;44.972;19.612;2023-09-12T04:00:52;25.48;;;11.15;;
79414;SDS011;68864;44.972;19.612;2023-09-12T04:05:47;35.78;;;12.70;;
79414;SDS011;68864;44.972;19.612;2023-09-12T04:08:14;40.85;;;16.83;;
79414;SDS011;68864;44.972;19.612;2023-09-12T04:10:42;34.45;;;14.07;;
79414;SDS011;68864;44.972;19.612;2023-09-12T04:13:09;35.90;;;10.63;;
79414;SDS011;68864;44.972;19.612;2023-09-12T04:15:35;21.92;;;9.00;;
79414;SDS011;68864;44.972;19.612;2023-09-12T04:18:02;22.42;;;11.00;;
79414;SDS011;68864;44.972;19.612;2023-09-12T04:20:31;16.10;;;5.38;;
79414;SDS011;68864;44.972;19.612;2023-09-12T04:23:00;14.07;;;4.70;;
79414;SDS011;68864;44.972;19.612;2023-09-12T04:25:27;14.27;;;5.70;;
79414;SDS011;68864;44.972;19.612;2023-09-12T04:27:54;19.48;;;11.27;;
79414;SDS011;68864;44.972;19.612;2023-09-12T04:30:21;16.10;;;10.48;;
79414;SDS011;68864;44.972;19.612;2023-09-12T04:32:48;14.65;;;7.50;;
79414;SDS011;68864;44.972;19.612;2023-09-12T04:35:15;15.68;;;9.60;;
79414;SDS011;68864;44.972;19.612;2023-09-12T04:37:45;14.77;;;5.57;;
79414;SDS011;68864;44.972;19.612;2023-09-12T04:40:12;17.02;;;10.10;;
79414;SDS011;68864;44.972;19.612;2023-09-12T04:42:39;18.20;;;10.27;;
79414;SDS011;68864;44.972;19.612;2023-09-12T04:47:33;10.63;;;3.75;;
79414;SDS011;68864;44.972;19.612;2023-09-12T04:50:00;12.15;;;7.10;;
79414;SDS011;68864;44.972;19.612;2023-09-12T04:52:27;12.95;;;9.20;;
79414;SDS011;68864;44.972;19.612;2023-09-12T04:54:55;13.18;;;8.13;;
79414;SDS011;68864;44.972;19.612;2023-09-12T04:57:22;9.90;;;4.05;;
79414;SDS011;68864;44.972;19.612;2023-09-12T04:59:48;15.93;;;7.85;;
79414;SDS011;68864;44.972;19.612;2023-09-12T05:02:17;14.82;;;6.75;;
79414;SDS011;68864;44.972;19.612;2023-09-12T05:04:43;11.85;;;4.43;;
79414;SDS011;68864;44.972;19.612;2023-09-12T05:07:10;15.55;;;6.30;;
79414;SDS011;68864;44.972;19.612;2023-09-12T05:09:37;11.52;;;4.75;;
79414;SDS011;68864;44.972;19.612;2023-09-12T05:12:05;16.30;;;6.60;;
79414;SDS011;68864;44.972;19.612;2023-09-12T05:14:32;24.13;;;11.63;;
79414;SDS011;68864;44.972;19.612;2023-09-12T05:16:59;21.58;;;12.38;;
79414;SDS011;68864;44.972;19.612;2023-09-12T05:19:26;22.80;;;12.20;;
79414;SDS011;68864;44.972;19.612;2023-09-12T05:21:54;16.73;;;10.45;;
79414;SDS011;68864;44.972;19.612;2023-09-12T05:24:21;18.98;;;6.45;;
79414;SDS011;68864;44.972;19.612;2023-09-12T05:26:47;15.25;;;6.57;;
79414;SDS011;68864;44.972;19.612;2023-09-12T05:29:16;17.35;;;6.72;;
79414;SDS011;68864;44.972;19.612;2023-09-12T05:31:42;21.77;;;8.48;;
79414;SDS011;68864;44.972;19.612;2023-09-12T05:34:09;15.68;;;7.80;;
79414;SDS011;68864;44.972;19.612;2023-09-12T05:36:36;21.13;;;9.80;;
79414;SDS011;68864;44.972;19.612;2023-09-12T05:39:03;26.08;;;11.20;;
79414;SDS011;68864;44.972;19.612;2023-09-12T05:41:30;21.23;;;11.43;;
79414;SDS011;68864;44.972;19.612;2023-09-12T05:43:57;28.23;;;10.50;;
79414;SDS011;68864;44.972;19.612;2023-09-12T05:46:25;29.42;;;12.35;;
79414;SDS011;68864;44.972;19.612;2023-09-12T05:48:52;26.67;;;11.75;;
79414;SDS011;68864;44.972;19.612;2023-09-12T05:51:18;26.55;;;12.55;;
79414;SDS011;68864;44.972;19.612;2023-09-12T05:53:45;26.60;;;11.10;;
79414;SDS011;68864;44.972;19.612;2023-09-12T05:56:12;23.65;;;11.65;;
79414;SDS011;68864;44.972;19.612;2023-09-12T05:58:39;15.48;;;8.85;;
79414;SDS011;68864;44.972;19.612;2023-09-12T06:01:07;31.42;;;10.00;;
79414;SDS011;68864;44.972;19.612;2023-09-12T06:03:35;28.33;;;10.20;;
79414;SDS011;68864;44.972;19.612;2023-09-12T06:06:02;31.20;;;11.77;;
79414;SDS011;68864;44.972;19.612;2023-09-12T06:08:29;24.83;;;12.15;;
79414;SDS011;68864;44.972;19.612;2023-09-12T06:10:56;19.80;;;9.05;;
79414;SDS011;68864;44.972;19.612;2023-09-12T06:13:23;14.93;;;8.35;;
79414;SDS011;68864;44.972;19.612;2023-09-12T06:15:50;18.70;;;7.75;;
79414;SDS011;68864;44.972;19.612;2023-09-12T06:18:17;20.15;;;8.13;;
79414;SDS011;68864;44.972;19.612;2023-09-12T06:20:46;21.55;;;9.73;;
79414;SDS011;68864;44.972;19.612;2023-09-12T06:23:13;14.63;;;7.05;;
79414;SDS011;68864;44.972;19.612;2023-09-12T06:25:40;19.75;;;10.30;;
79414;SDS011;68864;44.972;19.612;2023-09-12T06:30:35;20.83;;;6.88;;
79414;SDS011;68864;44.972;19.612;2023-09-12T06:35:29;17.17;;;7.20;;
79414;SDS011;68864;44.972;19.612;2023-09-12T06:40:23;15.80;;;6.95;;
79414;SDS011;68864;44.972;19.612;2023-09-12T06:45:16;24.42;;;10.40;;
79414;SDS011;68864;44.972;19.612;2023-09-12T06:47:43;24.17;;;10.70;;
79414;SDS011;68864;44.972;19.612;2023-09-12T06:52:37;23.98;;;7.88;;
79414;SDS011;68864;44.972;19.612;2023-09-12T06:57:32;26.45;;;11.23;;
79414;SDS011;68864;44.972;19.612;2023-09-12T07:02:26;24.50;;;9.20;;
79414;SDS011;68864;44.972;19.612;2023-09-12T07:04:53;15.90;;;6.95;;
79414;SDS011;68864;44.972;19.612;2023-09-12T07:07:21;19.35;;;9.93;;
79414;SDS011;68864;44.972;19.612;2023-09-12T07:09:48;11.63;;;6.57;;
79414;SDS011;68864;44.972;19.612;2023-09-12T07:14:43;18.88;;;7.35;;
79414;SDS011;68864;44.972;19.612;2023-09-12T07:17:10;15.48;;;6.15;;
79414;SDS011;68864;44.972;19.612;2023-09-12T07:19:36;16.42;;;6.05;;
79414;SDS011;68864;44.972;19.612;2023-09-12T07:24:30;11.93;;;5.28;;
79414;SDS011;68864;44.972;19.612;2023-09-12T07:26:57;16.30;;;5.72;;
79414;SDS011;68864;44.972;19.612;2023-09-12T07:29:25;16.20;;;4.82;;
79414;SDS011;68864;44.972;19.612;2023-09-12T07:31:52;11.90;;;4.85;;
79414;SDS011;68864;44.972;19.612;2023-09-12T07:34:20;9.18;;;6.40;;
79414;SDS011;68864;44.972;19.612;2023-09-12T07:36:47;10.65;;;6.57;;
79414;SDS011;68864;44.972;19.612;2023-09-12T07:39:13;11.57;;;5.55;;
79414;SDS011;68864;44.972;19.612;2023-09-12T07:41:40;10.85;;;3.58;;
79414;SDS011;68864;44.972;19.612;2023-09-12T07:44:07;15.88;;;4.13;;
79414;SDS011;68864;44.972;19.612;2023-09-12T07:46:37;14.15;;;5.32;;
79414;SDS011;68864;44.972;19.612;2023-09-12T07:49:04;16.88;;;4.30;;
79414;SDS011;68864;44.972;19.612;2023-09-12T07:51:33;13.07;;;3.15;;
79414;SDS011;68864;44.972;19.612;2023-09-12T07:54:00;9.02;;;2.75;;
79414;SDS011;68864;44.972;19.612;2023-09-12T07:56:27;11.68;;;2.97;;
79414;SDS011;68864;44.972;19.612;2023-09-12T07:58:54;7.32;;;2.40;;
79414;SDS011;68864;44.972;19.612;2023-09-12T08:01:21;10.00;;;2.83;;
79414;SDS011;68864;44.972;19.612;2023-09-12T08:03:49;9.90;;;2.08;;
79414;SDS011;68864;44.972;19.612;2023-09-12T08:06:16;10.05;;;1.80;;
79414;SDS011;68864;44.972;19.612;2023-09-12T08:08:43;11.88;;;4.68;;
79414;SDS011;68864;44.972;19.612;2023-09-12T08:11:10;9.18;;;2.35;;
79414;SDS011;68864;44.972;19.612;2023-09-12T08:13:36;10.60;;;3.15;;
79414;SDS011;68864;44.972;19.612;2023-09-12T08:16:03;9.52;;;3.15;;
79414;SDS011;68864;44.972;19.612;2023-09-12T08:18:30;11.43;;;1.90;;
79414;SDS011;68864;44.972;19.612;2023-09-12T08:20:58;10.95;;;5.05;;
79414;SDS011;68864;44.972;19.612;2023-09-12T08:23:25;11.30;;;4.68;;
79414;SDS011;68864;44.972;19.612;2023-09-12T08:25:52;9.60;;;2.38;;
79414;SDS011;68864;44.972;19.612;2023-09-12T08:28:19;9.02;;;2.30;;
79414;SDS011;68864;44.972;19.612;2023-09-12T08:30:46;10.85;;;2.97;;
79414;SDS011;68864;44.972;19.612;2023-09-12T08:33:13;14.93;;;2.08;;
79414;SDS011;68864;44.972;19.612;2023-09-12T08:35:40;8.38;;;2.20;;
79414;SDS011;68864;44.972;19.612;2023-09-12T08:38:08;9.88;;;2.30;;
79414;SDS011;68864;44.972;19.612;2023-09-12T08:40:35;13.73;;;3.53;;
79414;SDS011;68864;44.972;19.612;2023-09-12T08:43:03;11.25;;;6.05;;
79414;SDS011;68864;44.972;19.612;2023-09-12T08:45:30;11.05;;;2.45;;
79414;SDS011;68864;44.972;19.612;2023-09-12T08:47:58;9.88;;;2.95;;
79414;SDS011;68864;44.972;19.612;2023-09-12T08:50:26;18.02;;;6.72;;
79414;SDS011;68864;44.972;19.612;2023-09-12T08:52:56;11.60;;;2.47;;
79414;SDS011;68864;44.972;19.612;2023-09-12T08:55:24;8.90;;;2.92;;
79414;SDS011;68864;44.972;19.612;2023-09-12T08:57:51;12.68;;;3.03;;
79414;SDS011;68864;44.972;19.612;2023-09-12T09:00:21;15.50;;;4.75;;
79414;SDS011;68864;44.972;19.612;2023-09-12T09:02:49;10.23;;;2.33;;
79414;SDS011;68864;44.972;19.612;2023-09-12T09:05:18;15.15;;;5.38;;
79414;SDS011;68864;44.972;19.612;2023-09-12T09:07:47;11.75;;;4.18;;
79414;SDS011;68864;44.972;19.612;2023-09-12T09:10:15;10.15;;;3.65;;
79414;SDS011;68864;44.972;19.612;2023-09-12T09:12:45;12.30;;;3.97;;
79414;SDS011;68864;44.972;19.612;2023-09-12T09:15:25;13.10;;;4.95;;
79414;SDS011;68864;44.972;19.612;2023-09-12T09:17:54;9.63;;;4.22;;
79414;SDS011;68864;44.972;19.612;2023-09-12T09:20:25;13.85;;;3.58;;
79414;SDS011;68864;44.972;19.612;2023-09-12T09:22:56;13.35;;;2.95;;
79414;SDS011;68864;44.972;19.612;2023-09-12T09:25:25;10.15;;;2.95;;
79414;SDS011;68864;44.972;19.612;2023-09-12T09:27:53;9.85;;;5.30;;
79414;SDS011;68864;44.972;19.612;2023-09-12T09:33:06;11.65;;;3.17;;
79414;SDS011;68864;44.972;19.612;2023-09-12T09:35:33;7.97;;;4.68;;
79414;SDS011;68864;44.972;19.612;2023-09-12T09:38:00;9.00;;;2.58;;
79414;SDS011;68864;44.972;19.612;2023-09-12T09:40:28;12.90;;;3.03;;
79414;SDS011;68864;44.972;19.612;2023-09-12T09:42:57;12.80;;;3.15;;
79414;SDS011;68864;44.972;19.612;2023-09-12T09:45:26;11.93;;;3.65;;
79414;SDS011;68864;44.972;19.612;2023-09-12T09:47:56;11.18;;;2.72;;
79414;SDS011;68864;44.972;19.612;2023-09-12T09:50:23;8.43;;;2.53;;
79414;SDS011;68864;44.972;19.612;2023-09-12T09:52:52;10.38;;;4.65;;
79414;SDS011;68864;44.972;19.612;2023-09-12T09:55:20;15.82;;;5.18;;
79414;SDS011;68864;44.972;19.612;2023-09-12T09:57:47;13.70;;;4.65;;
79414;SDS011;68864;44.972;19.612;2023-09-12T10:00:15;8.02;;;2.47;;
79414;SDS011;68864;44.972;19.612;2023-09-12T10:02:42;10.65;;;2.88;;
79414;SDS011;68864;44.972;19.612;2023-09-12T10:05:12;8.30;;;1.75;;
79414;SDS011;68864;44.972;19.612;2023-09-12T10:07:42;10.27;;;2.00;;
79414;SDS011;68864;44.972;19.612;2023-09-12T10:10:13;10.88;;;4.70;;
79414;SDS011;68864;44.972;19.612;2023-09-12T10:12:42;11.65;;;3.67;;
79414;SDS011;68864;44.972;19.612;2023-09-12T10:15:13;9.52;;;2.03;;
79414;SDS011;68864;44.972;19.612;2023-09-12T10:17:43;7.85;;;2.65;;
79414;SDS011;68864;44.972;19.612;2023-09-12T10:20:19;9.63;;;2.78;;
79414;SDS011;68864;44.972;19.612;2023-09-12T10:22:49;12.15;;;5.63;;
79414;SDS011;68864;44.972;19.612;2023-09-12T10:25:22;14.43;;;5.63;;
79414;SDS011;68864;44.972;19.612;2023-09-12T10:27:50;8.45;;;5.15;;
79414;SDS011;68864;44.972;19.612;2023-09-12T10:30:20;11.13;;;2.50;;
79414;SDS011;68864;44.972;19.612;2023-09-12T10:32:48;11.75;;;5.97;;
79414;SDS011;68864;44.972;19.612;2023-09-12T10:35:16;11.60;;;4.50;;
79414;SDS011;68864;44.972;19.612;2023-09-12T10:37:43;12.05;;;5.95;;
79414;SDS011;68864;44.972;19.612;2023-09-12T10:40:12;11.43;;;5.82;;
79414;SDS011;68864;44.972;19.612;2023-09-12T10:42:40;11.02;;;5.53;;
79414;SDS011;68864;44.972;19.612;2023-09-12T10:45:09;10.45;;;4.95;;
79414;SDS011;68864;44.972;19.612;2023-09-12T10:47:37;9.98;;;2.03;;
79414;SDS011;68864;44.972;19.612;2023-09-12T10:50:05;10.55;;;2.65;;
79414;SDS011;68864;44.972;19.612;2023-09-12T10:52:33;10.02;;;2.88;;
79414;SDS011;68864;44.972;19.612;2023-09-12T10:55:04;13.15;;;3.05;;
79414;SDS011;68864;44.972;19.612;2023-09-12T10:57:32;9.70;;;1.92;;
79414;SDS011;68864;44.972;19.612;2023-09-12T11:00:12;10.02;;;3.83;;
79414;SDS011;68864;44.972;19.612;2023-09-12T11:02:41;10.95;;;4.22;;
79414;SDS011;68864;44.972;19.612;2023-09-12T11:08:10;16.98;;;6.55;;
79414;SDS011;68864;44.972;19.612;2023-09-12T11:10:37;11.63;;;5.63;;
79414;SDS011;68864;44.972;19.612;2023-09-12T11:13:05;11.15;;;5.03;;
79414;SDS011;68864;44.972;19.612;2023-09-12T11:21:39;8.73;;;4.93;;
79414;SDS011;68864;44.972;19.612;2023-09-12T11:24:06;12.52;;;4.18;;
79414;SDS011;68864;44.972;19.612;2023-09-12T11:26:33;15.50;;;6.75;;
79414;SDS011;68864;44.972;19.612;2023-09-12T11:29:10;6.05;;;2.20;;
79414;SDS011;68864;44.972;19.612;2023-09-12T11:31:37;9.32;;;1.35;;
79414;SDS011;68864;44.972;19.612;2023-09-12T11:34:08;9.25;;;5.07;;
79414;SDS011;68864;44.972;19.612;2023-09-12T11:36:42;8.77;;;3.08;;
79414;SDS011;68864;44.972;19.612;2023-09-12T11:39:21;7.00;;;2.47;;
79414;SDS011;68864;44.972;19.612;2023-09-12T11:41:50;8.95;;;1.77;;
79414;SDS011;68864;44.972;19.612;2023-09-12T11:44:18;14.90;;;5.18;;
79414;SDS011;68864;44.972;19.612;2023-09-12T11:46:47;11.60;;;2.40;;
79414;SDS011;68864;44.972;19.612;2023-09-12T11:49:15;11.60;;;5.03;;
79414;SDS011;68864;44.972;19.612;2023-09-12T11:51:48;11.05;;;4.28;;
79414;SDS011;68864;44.972;19.612;2023-09-12T11:56:46;6.95;;;2.85;;
79414;SDS011;68864;44.972;19.612;2023-09-12T11:59:13;7.88;;;1.27;;
79414;SDS011;68864;44.972;19.612;2023-09-12T12:01:40;10.00;;;1.63;;
79414;SDS011;68864;44.972;19.612;2023-09-12T12:04:07;9.98;;;2.03;;
79414;SDS011;68864;44.972;19.612;2023-09-12T12:06:35;10.40;;;2.13;;
79414;SDS011;68864;44.972;19.612;2023-09-12T12:09:04;9.13;;;2.38;;
79414;SDS011;68864;44.972;19.612;2023-09-12T12:11:31;10.07;;;1.55;;
79414;SDS011;68864;44.972;19.612;2023-09-12T12:13:58;8.95;;;1.80;;
79414;SDS011;68864;44.972;19.612;2023-09-12T12:16:36;14.10;;;2.00;;
79414;SDS011;68864;44.972;19.612;2023-09-12T12:19:03;10.32;;;1.92;;
79414;SDS011;68864;44.972;19.612;2023-09-12T12:21:30;8.73;;;1.58;;
79414;SDS011;68864;44.972;19.612;2023-09-12T12:23:58;9.32;;;1.85;;
79414;SDS011;68864;44.972;19.612;2023-09-12T12:26:26;6.72;;;1.17;;
79414;SDS011;68864;44.972;19.612;2023-09-12T12:28:53;10.73;;;1.33;;
79414;SDS011;68864;44.972;19.612;2023-09-12T12:31:20;10.73;;;1.20;;
79414;SDS011;68864;44.972;19.612;2023-09-12T12:33:49;9.68;;;1.67;;
79414;SDS011;68864;44.972;19.612;2023-09-12T12:36:16;11.43;;;1.70;;
79414;SDS011;68864;44.972;19.612;2023-09-12T12:38:43;13.07;;;1.98;;
79414;SDS011;68864;44.972;19.612;2023-09-12T12:41:12;15.82;;;3.47;;
79414;SDS011;68864;44.972;19.612;2023-09-12T12:43:42;7.72;;;1.13;;
79414;SDS011;68864;44.972;19.612;2023-09-12T12:46:10;10.52;;;1.65;;
79414;SDS011;68864;44.972;19.612;2023-09-12T12:48:38;11.13;;;4.20;;
79414;SDS011;68864;44.972;19.612;2023-09-12T12:51:13;7.28;;;0.90;;
79414;SDS011;68864;44.972;19.612;2023-09-12T12:53:42;7.18;;;1.40;;
79414;SDS011;68864;44.972;19.612;2023-09-12T12:56:11;11.30;;;2.03;;
79414;SDS011;68864;44.972;19.612;2023-09-12T12:58:46;14.18;;;4.88;;
79414;SDS011;68864;44.972;19.612;2023-09-12T13:01:14;11.63;;;3.55;;
79414;SDS011;68864;44.972;19.612;2023-09-12T13:03:41;10.75;;;3.33;;
79414;SDS011;68864;44.972;19.612;2023-09-12T13:06:08;15.85;;;3.72;;
79414;SDS011;68864;44.972;19.612;2023-09-12T13:08:38;13.77;;;3.42;;
79414;SDS011;68864;44.972;19.612;2023-09-12T13:11:06;11.25;;;3.70;;
79414;SDS011;68864;44.972;19.612;2023-09-12T13:13:34;8.57;;;4.20;;
79414;SDS011;68864;44.972;19.612;2023-09-12T13:16:03;9.93;;;1.58;;
79414;SDS011;68864;44.972;19.612;2023-09-12T13:18:31;9.05;;;2.20;;
79414;SDS011;68864;44.972;19.612;2023-09-12T13:20:58;11.63;;;5.10;;
79414;SDS011;68864;44.972;19.612;2023-09-12T13:23:25;11.93;;;6.72;;
79414;SDS011;68864;44.972;19.612;2023-09-12T13:25:52;9.85;;;2.38;;
79414;SDS011;68864;44.972;19.612;2023-09-12T13:28:19;6.70;;;3.15;;
79414;SDS011;68864;44.972;19.612;2023-09-12T13:30:48;7.47;;;1.48;;
79414;SDS011;68864;44.972;19.612;2023-09-12T13:33:17;7.07;;;1.30;;
79414;SDS011;68864;44.972;19.612;2023-09-12T13:35:43;11.93;;;1.63;;
79414;SDS011;68864;44.972;19.612;2023-09-12T13:38:10;12.05;;;1.55;;
79414;SDS011;68864;44.972;19.612;2023-09-12T13:40:37;12.00;;;2.13;;
79414;SDS011;68864;44.972;19.612;2023-09-12T13:43:05;10.18;;;1.92;;
79414;SDS011;68864;44.972;19.612;2023-09-12T13:45:32;8.50;;;3.47;;
79414;SDS011;68864;44.972;19.612;2023-09-12T13:47:59;14.43;;;1.63;;
79414;SDS011;68864;44.972;19.612;2023-09-12T13:50:31;12.85;;;4.30;;
79414;SDS011;68864;44.972;19.612;2023-09-12T13:52:58;13.60;;;6.68;;
79414;SDS011;68864;44.972;19.612;2023-09-12T13:55:28;20.83;;;8.32;;
79414;SDS011;68864;44.972;19.612;2023-09-12T13:57:56;11.55;;;6.22;;
79414;SDS011;68864;44.972;19.612;2023-09-12T14:00:24;14.60;;;2.92;;
79414;SDS011;68864;44.972;19.612;2023-09-12T14:02:51;6.40;;;1.20;;
79414;SDS011;68864;44.972;19.612;2023-09-12T14:05:18;9.05;;;4.03;;
79414;SDS011;68864;44.972;19.612;2023-09-12T14:07:46;9.23;;;1.98;;
79414;SDS011;68864;44.972;19.612;2023-09-12T14:10:13;11.48;;;3.28;;
79414;SDS011;68864;44.972;19.612;2023-09-12T14:12:40;8.65;;;1.85;;
79414;SDS011;68864;44.972;19.612;2023-09-12T14:15:07;8.55;;;2.17;;
79414;SDS011;68864;44.972;19.612;2023-09-12T14:17:34;11.52;;;1.88;;
79414;SDS011;68864;44.972;19.612;2023-09-12T14:20:01;9.93;;;1.60;;
79414;SDS011;68864;44.972;19.612;2023-09-12T14:22:28;12.88;;;5.10;;
79414;SDS011;68864;44.972;19.612;2023-09-12T14:24:57;12.70;;;1.55;;
79414;SDS011;68864;44.972;19.612;2023-09-12T14:27:23;7.75;;;1.63;;
79414;SDS011;68864;44.972;19.612;2023-09-12T14:29:50;5.72;;;1.25;;
79414;SDS011;68864;44.972;19.612;2023-09-12T14:32:17;8.60;;;3.60;;
79414;SDS011;68864;44.972;19.612;2023-09-12T14:34:44;5.72;;;1.42;;
79414;SDS011;68864;44.972;19.612;2023-09-12T14:37:11;9.73;;;4.32;;
79414;SDS011;68864;44.972;19.612;2023-09-12T14:39:38;10.55;;;4.40;;
79414;SDS011;68864;44.972;19.612;2023-09-12T14:42:06;9.27;;;1.65;;
79414;SDS011;68864;44.972;19.612;2023-09-12T14:44:34;9.05;;;1.00;;
79414;SDS011;68864;44.972;19.612;2023-09-12T14:47:01;6.30;;;1.58;;
79414;SDS011;68864;44.972;19.612;2023-09-12T14:49:28;9.75;;;1.10;;
79414;SDS011;68864;44.972;19.612;2023-09-12T14:51:54;8.27;;;1.05;;
79414;SDS011;68864;44.972;19.612;2023-09-12T14:54:21;5.30;;;1.17;;
79414;SDS011;68864;44.972;19.612;2023-09-12T14:56:49;12.32;;;3.88;;
79414;SDS011;68864;44.972;19.612;2023-09-12T14:59:17;8.02;;;2.60;;
79414;SDS011;68864;44.972;19.612;2023-09-12T15:01:45;7.13;;;1.25;;
79414;SDS011;68864;44.972;19.612;2023-09-12T15:04:12;8.27;;;3.67;;
79414;SDS011;68864;44.972;19.612;2023-09-12T15:06:39;10.23;;;1.00;;
79414;SDS011;68864;44.972;19.612;2023-09-12T15:09:06;7.20;;;1.25;;
79414;SDS011;68864;44.972;19.612;2023-09-12T15:11:33;12.95;;;4.25;;
79414;SDS011;68864;44.972;19.612;2023-09-12T15:14:00;6.25;;;1.05;;
79414;SDS011;68864;44.972;19.612;2023-09-12T15:16:28;6.43;;;0.90;;
79414;SDS011;68864;44.972;19.612;2023-09-12T15:18:59;6.53;;;1.38;;
79414;SDS011;68864;44.972;19.612;2023-09-12T15:21:27;9.20;;;3.40;;
79414;SDS011;68864;44.972;19.612;2023-09-12T15:23:54;9.32;;;1.80;;